Jay, Maine
Current Conditions -  °F | °C
As of 4:53 PM on Thursday 23 Oct 2014 (Local Time) from KAUG Reporting Station
Light Rain Light Rain  
Wind Chill: 41°   Ceiling: 800
Heat Index: 48°   Visibility: 4mi
Dew Point: 46°   Wind: 21mph
Humidity: 93%   Direction: 10°N
Pressure: 29.79"   Gusts: 26mph
Location:  44.51°N, 70.22°W
Report Text: KAUG 232053Z AUTO 01018G23KT 4SM -RA BR OVC008 09/08 A2979 RMK AO2 PK WND 01028/2008 SLP091 P0005 60038 T00890078 55006
Loading
Personal Weather Stations






























Interactive Weather Map
Tropical Storm Tracking
New forecast layout! Learn more

10-Day Weather Forecast

Advertisements
Track Severe Weather on mobile